sensor_id;sensor_type;location;lat;lon;timestamp;temperature;humidity
33739;DHT22;20063;51.730;11.110;2023-04-07T00:01:23;6.40;99.90
33739;DHT22;20063;51.730;11.110;2023-04-07T00:03:48;6.40;99.90
33739;DHT22;20063;51.730;11.110;2023-04-07T00:06:14;6.40;99.90
33739;DHT22;20063;51.730;11.110;2023-04-07T00:08:40;6.40;99.90
33739;DHT22;20063;51.730;11.110;2023-04-07T00:11:06;6.40;99.90
33739;DHT22;20063;51.730;11.110;2023-04-07T00:13:33;6.40;99.90
33739;DHT22;20063;51.730;11.110;2023-04-07T00:15:58;6.40;99.90
33739;DHT22;20063;51.730;11.110;2023-04-07T00:18:24;6.30;99.90
33739;DHT22;20063;51.730;11.110;2023-04-07T00:20:55;6.30;99.90
33739;DHT22;20063;51.730;11.110;2023-04-07T00:23:24;6.30;99.90
33739;DHT22;20063;51.730;11.110;2023-04-07T00:25:50;6.30;99.90
33739;DHT22;20063;51.730;11.110;2023-04-07T00:28:18;6.30;99.90
33739;DHT22;20063;51.730;11.110;2023-04-07T00:30:44;6.30;99.90
33739;DHT22;20063;51.730;11.110;2023-04-07T00:33:10;6.40;99.90
33739;DHT22;20063;51.730;11.110;2023-04-07T00:35:36;6.30;99.90
33739;DHT22;20063;51.730;11.110;2023-04-07T00:38:02;6.40;99.90
33739;DHT22;20063;51.730;11.110;2023-04-07T00:40:27;6.40;99.90
33739;DHT22;20063;51.730;11.110;2023-04-07T00:42:53;6.40;99.90
33739;DHT22;20063;51.730;11.110;2023-04-07T00:45:19;6.40;99.90
33739;DHT22;20063;51.730;11.110;2023-04-07T00:47:47;6.40;99.90
33739;DHT22;20063;51.730;11.110;2023-04-07T00:50:13;6.40;99.90
33739;DHT22;20063;51.730;11.110;2023-04-07T00:52:39;6.40;99.90
33739;DHT22;20063;51.730;11.110;2023-04-07T00:55:05;6.40;99.90
33739;DHT22;20063;51.730;11.110;2023-04-07T00:57:30;6.40;99.90
33739;DHT22;20063;51.730;11.110;2023-04-07T00:59:56;6.40;99.90
33739;DHT22;20063;51.730;11.110;2023-04-07T01:05:02;6.30;99.90
33739;DHT22;20063;51.730;11.110;2023-04-07T01:08:11;6.30;99.90
33739;DHT22;20063;51.730;11.110;2023-04-07T01:15:51;6.40;99.90
33739;DHT22;20063;51.730;11.110;2023-04-07T01:18:25;6.40;99.90
33739;DHT22;20063;51.730;11.110;2023-04-07T01:20:56;6.40;99.90
33739;DHT22;20063;51.730;11.110;2023-04-07T01:26:22;6.40;99.90
33739;DHT22;20063;51.730;11.110;2023-04-07T01:31:40;6.40;99.90
33739;DHT22;20063;51.730;11.110;2023-04-07T01:34:09;6.40;99.90
33739;DHT22;20063;51.730;11.110;2023-04-07T01:36:35;6.40;99.90
33739;DHT22;20063;51.730;11.110;2023-04-07T01:39:01;6.30;99.90
33739;DHT22;20063;51.730;11.110;2023-04-07T01:41:27;6.30;99.90
33739;DHT22;20063;51.730;11.110;2023-04-07T01:43:55;6.30;99.90
33739;DHT22;20063;51.730;11.110;2023-04-07T01:46:21;6.20;99.90
33739;DHT22;20063;51.730;11.110;2023-04-07T01:48:47;6.00;99.90
33739;DHT22;20063;51.730;11.110;2023-04-07T01:51:14;5.80;99.90
33739;DHT22;20063;51.730;11.110;2023-04-07T01:53:44;5.60;99.90
33739;DHT22;20063;51.730;11.110;2023-04-07T01:56:10;5.40;99.90
33739;DHT22;20063;51.730;11.110;2023-04-07T01:58:36;5.30;99.90
33739;DHT22;20063;51.730;11.110;2023-04-07T02:01:02;5.20;99.90
33739;DHT22;20063;51.730;11.110;2023-04-07T02:03:42;5.10;99.90
33739;DHT22;20063;51.730;11.110;2023-04-07T02:06:11;5.10;99.90
33739;DHT22;20063;51.730;11.110;2023-04-07T02:08:41;5.10;99.90
33739;DHT22;20063;51.730;11.110;2023-04-07T02:11:11;5.00;99.90
33739;DHT22;20063;51.730;11.110;2023-04-07T02:13:39;4.90;99.90
33739;DHT22;20063;51.730;11.110;2023-04-07T02:16:06;4.90;99.90
33739;DHT22;20063;51.730;11.110;2023-04-07T02:18:33;4.70;99.90
33739;DHT22;20063;51.730;11.110;2023-04-07T02:20:59;4.70;99.90
33739;DHT22;20063;51.730;11.110;2023-04-07T02:23:26;4.60;99.90
33739;DHT22;20063;51.730;11.110;2023-04-07T02:25:56;4.40;99.90
33739;DHT22;20063;51.730;11.110;2023-04-07T02:28:22;4.20;99.90
33739;DHT22;20063;51.730;11.110;2023-04-07T02:30:48;4.10;99.90
33739;DHT22;20063;51.730;11.110;2023-04-07T02:33:13;4.00;99.90
33739;DHT22;20063;51.730;11.110;2023-04-07T02:35:39;3.90;99.90
33739;DHT22;20063;51.730;11.110;2023-04-07T02:38:05;3.80;99.90
33739;DHT22;20063;51.730;11.110;2023-04-07T02:40:31;3.80;99.90
33739;DHT22;20063;51.730;11.110;2023-04-07T02:42:56;3.60;99.90
33739;DHT22;20063;51.730;11.110;2023-04-07T02:45:22;3.50;99.90
33739;DHT22;20063;51.730;11.110;2023-04-07T02:47:47;3.40;99.90
33739;DHT22;20063;51.730;11.110;2023-04-07T02:50:13;3.40;99.90
33739;DHT22;20063;51.730;11.110;2023-04-07T02:52:39;3.40;99.90
33739;DHT22;20063;51.730;11.110;2023-04-07T02:55:08;3.30;99.90
33739;DHT22;20063;51.730;11.110;2023-04-07T02:57:34;3.30;99.90
33739;DHT22;20063;51.730;11.110;2023-04-07T03:00:00;3.30;99.90
33739;DHT22;20063;51.730;11.110;2023-04-07T03:02:25;3.20;99.90
33739;DHT22;20063;51.730;11.110;2023-04-07T03:04:51;3.10;99.90
33739;DHT22;20063;51.730;11.110;2023-04-07T03:07:17;3.10;99.90
33739;DHT22;20063;51.730;11.110;2023-04-07T03:09:43;3.10;99.90
33739;DHT22;20063;51.730;11.110;2023-04-07T03:12:09;3.10;99.90
33739;DHT22;20063;51.730;11.110;2023-04-07T03:14:35;3.10;99.90
33739;DHT22;20063;51.730;11.110;2023-04-07T03:17:02;3.10;99.90
33739;DHT22;20063;51.730;11.110;2023-04-07T03:19:27;3.10;99.90
33739;DHT22;20063;51.730;11.110;2023-04-07T03:21:53;3.10;99.90
33739;DHT22;20063;51.730;11.110;2023-04-07T03:24:25;3.10;99.90
33739;DHT22;20063;51.730;11.110;2023-04-07T03:26:51;3.00;99.90
33739;DHT22;20063;51.730;11.110;2023-04-07T03:29:17;3.00;99.90
33739;DHT22;20063;51.730;11.110;2023-04-07T03:31:43;2.90;99.90
33739;DHT22;20063;51.730;11.110;2023-04-07T03:34:08;2.90;99.90
33739;DHT22;20063;51.730;11.110;2023-04-07T03:36:34;2.90;99.90
33739;DHT22;20063;51.730;11.110;2023-04-07T03:39:00;2.80;99.90
33739;DHT22;20063;51.730;11.110;2023-04-07T03:41:25;2.70;99.90
33739;DHT22;20063;51.730;11.110;2023-04-07T03:43:52;2.70;99.90
33739;DHT22;20063;51.730;11.110;2023-04-07T03:46:20;2.60;99.90
33739;DHT22;20063;51.730;11.110;2023-04-07T03:48:46;2.60;99.90
33739;DHT22;20063;51.730;11.110;2023-04-07T03:51:12;2.60;99.90
33739;DHT22;20063;51.730;11.110;2023-04-07T03:53:37;2.60;99.90
33739;DHT22;20063;51.730;11.110;2023-04-07T03:56:03;2.50;99.90
33739;DHT22;20063;51.730;11.110;2023-04-07T03:58:29;2.50;99.90
33739;DHT22;20063;51.730;11.110;2023-04-07T04:00:56;2.50;99.90
33739;DHT22;20063;51.730;11.110;2023-04-07T04:03:21;2.60;99.90
33739;DHT22;20063;51.730;11.110;2023-04-07T04:05:47;2.60;99.90
33739;DHT22;20063;51.730;11.110;2023-04-07T04:08:13;2.50;99.90
33739;DHT22;20063;51.730;11.110;2023-04-07T04:10:38;2.50;99.90
33739;DHT22;20063;51.730;11.110;2023-04-07T04:13:04;2.40;99.90
33739;DHT22;20063;51.730;11.110;2023-04-07T04:15:32;2.40;99.90
33739;DHT22;20063;51.730;11.110;2023-04-07T04:17:58;2.40;99.90
33739;DHT22;20063;51.730;11.110;2023-04-07T04:20:23;2.40;99.90
33739;DHT22;20063;51.730;11.110;2023-04-07T04:22:51;2.40;99.90
33739;DHT22;20063;51.730;11.110;2023-04-07T04:25:17;2.30;99.90
33739;DHT22;20063;51.730;11.110;2023-04-07T04:27:43;2.30;99.90
33739;DHT22;20063;51.730;11.110;2023-04-07T04:30:08;2.20;99.90
33739;DHT22;20063;51.730;11.110;2023-04-07T04:32:34;2.20;99.90
33739;DHT22;20063;51.730;11.110;2023-04-07T04:35:00;2.20;99.90
33739;DHT22;20063;51.730;11.110;2023-04-07T04:37:29;2.20;99.90
33739;DHT22;20063;51.730;11.110;2023-04-07T04:39:54;2.10;99.90
33739;DHT22;20063;51.730;11.110;2023-04-07T04:42:20;2.20;99.90
33739;DHT22;20063;51.730;11.110;2023-04-07T04:44:45;2.20;99.90
33739;DHT22;20063;51.730;11.110;2023-04-07T04:47:11;2.10;99.90
33739;DHT22;20063;51.730;11.110;2023-04-07T04:49:37;2.10;99.90
33739;DHT22;20063;51.730;11.110;2023-04-07T04:52:02;2.10;99.90
33739;DHT22;20063;51.730;11.110;2023-04-07T04:54:28;2.10;99.90
33739;DHT22;20063;51.730;11.110;2023-04-07T04:56:54;2.10;99.90
33739;DHT22;20063;51.730;11.110;2023-04-07T04:59:22;2.10;99.90
33739;DHT22;20063;51.730;11.110;2023-04-07T05:01:47;2.10;99.90
33739;DHT22;20063;51.730;11.110;2023-04-07T05:04:13;2.10;99.90
33739;DHT22;20063;51.730;11.110;2023-04-07T05:06:39;2.10;99.90
33739;DHT22;20063;51.730;11.110;2023-04-07T05:09:04;2.10;99.90
33739;DHT22;20063;51.730;11.110;2023-04-07T05:11:30;2.10;99.90
33739;DHT22;20063;51.730;11.110;2023-04-07T05:13:55;2.20;99.90
33739;DHT22;20063;51.730;11.110;2023-04-07T05:16:21;2.20;99.90
33739;DHT22;20063;51.730;11.110;2023-04-07T05:18:47;2.20;99.90
33739;DHT22;20063;51.730;11.110;2023-04-07T05:21:12;2.20;99.90
33739;DHT22;20063;51.730;11.110;2023-04-07T05:23:38;2.20;99.90
33739;DHT22;20063;51.730;11.110;2023-04-07T05:26:03;2.30;99.90
33739;DHT22;20063;51.730;11.110;2023-04-07T05:28:29;2.30;99.90
33739;DHT22;20063;51.730;11.110;2023-04-07T05:30:55;2.30;99.90
33739;DHT22;20063;51.730;11.110;2023-04-07T05:33:21;2.40;99.90
33739;DHT22;20063;51.730;11.110;2023-04-07T05:35:47;2.40;99.90
33739;DHT22;20063;51.730;11.110;2023-04-07T05:38:13;2.50;99.90
33739;DHT22;20063;51.730;11.110;2023-04-07T05:40:42;2.60;99.90
33739;DHT22;20063;51.730;11.110;2023-04-07T05:43:07;2.70;99.90
33739;DHT22;20063;51.730;11.110;2023-04-07T05:45:33;2.80;99.90
33739;DHT22;20063;51.730;11.110;2023-04-07T05:47:58;2.80;99.90
33739;DHT22;20063;51.730;11.110;2023-04-07T05:50:24;2.90;99.90
33739;DHT22;20063;51.730;11.110;2023-04-07T05:52:51;3.00;99.90
33739;DHT22;20063;51.730;11.110;2023-04-07T05:55:17;3.10;99.90
33739;DHT22;20063;51.730;11.110;2023-04-07T05:57:42;3.20;99.90
33739;DHT22;20063;51.730;11.110;2023-04-07T06:00:08;3.30;99.90
33739;DHT22;20063;51.730;11.110;2023-04-07T06:02:35;3.30;99.90
33739;DHT22;20063;51.730;11.110;2023-04-07T06:05:01;3.40;99.90
33739;DHT22;20063;51.730;11.110;2023-04-07T06:07:26;3.50;99.90
33739;DHT22;20063;51.730;11.110;2023-04-07T06:09:55;3.60;99.90
33739;DHT22;20063;51.730;11.110;2023-04-07T06:12:20;3.60;99.90
33739;DHT22;20063;51.730;11.110;2023-04-07T06:14:53;3.70;99.90
33739;DHT22;20063;51.730;11.110;2023-04-07T06:17:19;3.80;99.90
33739;DHT22;20063;51.730;11.110;2023-04-07T06:19:48;3.90;99.90
33739;DHT22;20063;51.730;11.110;2023-04-07T06:22:13;3.90;99.90
33739;DHT22;20063;51.730;11.110;2023-04-07T06:24:39;4.00;99.90
33739;DHT22;20063;51.730;11.110;2023-04-07T06:27:05;4.10;99.90
33739;DHT22;20063;51.730;11.110;2023-04-07T06:29:34;4.10;99.90
33739;DHT22;20063;51.730;11.110;2023-04-07T06:32:02;4.20;99.90
33739;DHT22;20063;51.730;11.110;2023-04-07T06:34:28;4.20;99.90
33739;DHT22;20063;51.730;11.110;2023-04-07T06:36:53;4.20;99.90
33739;DHT22;20063;51.730;11.110;2023-04-07T06:39:19;4.30;99.90
33739;DHT22;20063;51.730;11.110;2023-04-07T06:41:45;4.30;99.90
33739;DHT22;20063;51.730;11.110;2023-04-07T06:44:11;4.30;99.90
33739;DHT22;20063;51.730;11.110;2023-04-07T06:46:37;4.30;99.90
33739;DHT22;20063;51.730;11.110;2023-04-07T06:49:03;4.40;99.90
33739;DHT22;20063;51.730;11.110;2023-04-07T06:51:29;4.40;99.90
33739;DHT22;20063;51.730;11.110;2023-04-07T06:53:56;4.40;99.90
33739;DHT22;20063;51.730;11.110;2023-04-07T06:56:22;4.40;99.90
33739;DHT22;20063;51.730;11.110;2023-04-07T06:58:48;4.50;99.90
33739;DHT22;20063;51.730;11.110;2023-04-07T07:01:13;4.40;99.90
33739;DHT22;20063;51.730;11.110;2023-04-07T07:03:39;4.50;99.90
33739;DHT22;20063;51.730;11.110;2023-04-07T07:06:04;4.50;99.90
33739;DHT22;20063;51.730;11.110;2023-04-07T07:08:33;4.50;99.90
33739;DHT22;20063;51.730;11.110;2023-04-07T07:10:58;4.50;99.90
33739;DHT22;20063;51.730;11.110;2023-04-07T07:13:25;4.50;99.90
33739;DHT22;20063;51.730;11.110;2023-04-07T07:15:52;4.60;99.90
33739;DHT22;20063;51.730;11.110;2023-04-07T07:18:18;4.60;99.90
33739;DHT22;20063;51.730;11.110;2023-04-07T07:20:44;4.60;99.90
33739;DHT22;20063;51.730;11.110;2023-04-07T07:23:10;4.60;99.90
33739;DHT22;20063;51.730;11.110;2023-04-07T07:25:35;4.60;99.90
33739;DHT22;20063;51.730;11.110;2023-04-07T07:28:01;4.60;99.90
33739;DHT22;20063;51.730;11.110;2023-04-07T07:30:26;4.70;99.90
33739;DHT22;20063;51.730;11.110;2023-04-07T07:32:53;4.80;99.90
33739;DHT22;20063;51.730;11.110;2023-04-07T07:35:19;4.80;99.90
33739;DHT22;20063;51.730;11.110;2023-04-07T07:37:46;4.80;99.90
33739;DHT22;20063;51.730;11.110;2023-04-07T07:40:12;4.80;99.90
33739;DHT22;20063;51.730;11.110;2023-04-07T07:42:38;4.90;99.90
33739;DHT22;20063;51.730;11.110;2023-04-07T07:45:04;4.90;99.90
33739;DHT22;20063;51.730;11.110;2023-04-07T07:47:30;4.90;99.90
33739;DHT22;20063;51.730;11.110;2023-04-07T07:49:56;5.00;99.90
33739;DHT22;20063;51.730;11.110;2023-04-07T07:52:21;5.10;99.90
33739;DHT22;20063;51.730;11.110;2023-04-07T07:54:49;5.10;99.90
33739;DHT22;20063;51.730;11.110;2023-04-07T07:57:14;5.20;99.90
33739;DHT22;20063;51.730;11.110;2023-04-07T07:59:40;5.40;99.90
33739;DHT22;20063;51.730;11.110;2023-04-07T08:02:06;5.50;99.90
33739;DHT22;20063;51.730;11.110;2023-04-07T08:04:32;5.60;99.90
33739;DHT22;20063;51.730;11.110;2023-04-07T08:06:58;5.70;99.90
33739;DHT22;20063;51.730;11.110;2023-04-07T08:09:24;5.70;99.90
33739;DHT22;20063;51.730;11.110;2023-04-07T08:11:51;5.80;99.90
33739;DHT22;20063;51.730;11.110;2023-04-07T08:14:17;5.90;99.90
33739;DHT22;20063;51.730;11.110;2023-04-07T08:16:43;6.00;99.90
33739;DHT22;20063;51.730;11.110;2023-04-07T08:19:09;6.00;99.90
33739;DHT22;20063;51.730;11.110;2023-04-07T08:21:34;6.10;99.90
33739;DHT22;20063;51.730;11.110;2023-04-07T08:24:02;6.20;99.90
33739;DHT22;20063;51.730;11.110;2023-04-07T08:26:34;6.30;99.90
33739;DHT22;20063;51.730;11.110;2023-04-07T08:28:59;6.30;99.90
33739;DHT22;20063;51.730;11.110;2023-04-07T08:31:25;6.30;99.90
33739;DHT22;20063;51.730;11.110;2023-04-07T08:33:50;6.40;99.90
33739;DHT22;20063;51.730;11.110;2023-04-07T08:36:25;6.40;99.90
33739;DHT22;20063;51.730;11.110;2023-04-07T08:38:52;6.50;99.90
33739;DHT22;20063;51.730;11.110;2023-04-07T08:41:26;6.50;99.90
33739;DHT22;20063;51.730;11.110;2023-04-07T08:43:55;6.50;99.90
33739;DHT22;20063;51.730;11.110;2023-04-07T08:46:21;6.60;99.90
33739;DHT22;20063;51.730;11.110;2023-04-07T08:48:51;6.60;99.90
33739;DHT22;20063;51.730;11.110;2023-04-07T08:51:29;6.70;99.90
33739;DHT22;20063;51.730;11.110;2023-04-07T08:54:03;6.80;99.90
33739;DHT22;20063;51.730;11.110;2023-04-07T08:56:32;6.90;99.90
33739;DHT22;20063;51.730;11.110;2023-04-07T08:59:00;7.10;99.90
33739;DHT22;20063;51.730;11.110;2023-04-07T09:01:27;7.30;99.90
33739;DHT22;20063;51.730;11.110;2023-04-07T09:03:55;7.40;99.90
33739;DHT22;20063;51.730;11.110;2023-04-07T09:06:21;7.60;99.90
33739;DHT22;20063;51.730;11.110;2023-04-07T09:08:47;7.70;99.90
33739;DHT22;20063;51.730;11.110;2023-04-07T09:11:13;7.80;99.90
33739;DHT22;20063;51.730;11.110;2023-04-07T09:13:38;8.00;99.90
33739;DHT22;20063;51.730;11.110;2023-04-07T09:16:04;8.10;99.90
33739;DHT22;20063;51.730;11.110;2023-04-07T09:18:30;8.20;99.90
33739;DHT22;20063;51.730;11.110;2023-04-07T09:20:57;8.20;99.90
33739;DHT22;20063;51.730;11.110;2023-04-07T09:23:49;8.30;99.90
33739;DHT22;20063;51.730;11.110;2023-04-07T09:26:26;8.40;99.90
33739;DHT22;20063;51.730;11.110;2023-04-07T09:28:59;8.50;99.90
33739;DHT22;20063;51.730;11.110;2023-04-07T09:31:46;8.50;99.90
33739;DHT22;20063;51.730;11.110;2023-04-07T09:34:30;8.60;99.90
33739;DHT22;20063;51.730;11.110;2023-04-07T09:36:57;8.60;99.90
33739;DHT22;20063;51.730;11.110;2023-04-07T09:39:23;8.50;99.90
33739;DHT22;20063;51.730;11.110;2023-04-07T09:41:49;8.50;99.90
33739;DHT22;20063;51.730;11.110;2023-04-07T09:44:15;8.60;99.90
33739;DHT22;20063;51.730;11.110;2023-04-07T09:47:07;8.60;99.90
33739;DHT22;20063;51.730;11.110;2023-04-07T09:49:49;8.70;99.90
33739;DHT22;20063;51.730;11.110;2023-04-07T09:52:21;8.80;99.90
33739;DHT22;20063;51.730;11.110;2023-04-07T09:54:48;8.90;99.90
33739;DHT22;20063;51.730;11.110;2023-04-07T09:57:13;9.00;99.90
33739;DHT22;20063;51.730;11.110;2023-04-07T09:59:41;9.10;99.90
33739;DHT22;20063;51.730;11.110;2023-04-07T10:02:09;9.10;99.90
33739;DHT22;20063;51.730;11.110;2023-04-07T10:04:39;9.10;99.90
33739;DHT22;20063;51.730;11.110;2023-04-07T10:07:05;9.20;99.90
33739;DHT22;20063;51.730;11.110;2023-04-07T10:09:31;9.20;99.90
33739;DHT22;20063;51.730;11.110;2023-04-07T10:11:58;9.30;99.90
33739;DHT22;20063;51.730;11.110;2023-04-07T10:14:29;9.20;99.90
33739;DHT22;20063;51.730;11.110;2023-04-07T10:16:55;9.20;98.90
33739;DHT22;20063;51.730;11.110;2023-04-07T10:19:22;9.30;98.00
33739;DHT22;20063;51.730;11.110;2023-04-07T10:21:52;9.20;99.90
33739;DHT22;20063;51.730;11.110;2023-04-07T10:24:47;9.30;99.90
33739;DHT22;20063;51.730;11.110;2023-04-07T10:27:22;9.30;99.90
33739;DHT22;20063;51.730;11.110;2023-04-07T10:29:51;9.40;99.90
33739;DHT22;20063;51.730;11.110;2023-04-07T10:32:17;9.40;99.90
33739;DHT22;20063;51.730;11.110;2023-04-07T10:37:21;9.50;98.70
33739;DHT22;20063;51.730;11.110;2023-04-07T10:40:37;9.50;99.90
33739;DHT22;20063;51.730;11.110;2023-04-07T10:45:07;9.60;99.90
33739;DHT22;20063;51.730;11.110;2023-04-07T10:47:34;9.60;99.90
33739;DHT22;20063;51.730;11.110;2023-04-07T10:50:20;9.70;99.90
33739;DHT22;20063;51.730;11.110;2023-04-07T10:53:10;9.70;99.90
33739;DHT22;20063;51.730;11.110;2023-04-07T10:55:44;9.80;99.90
33739;DHT22;20063;51.730;11.110;2023-04-07T10:58:20;9.70;99.90
33739;DHT22;20063;51.730;11.110;2023-04-07T11:03:25;9.80;97.90
33739;DHT22;20063;51.730;11.110;2023-04-07T11:06:13;9.70;99.90
33739;DHT22;20063;51.730;11.110;2023-04-07T11:08:43;9.70;99.90
33739;DHT22;20063;51.730;11.110;2023-04-07T11:11:11;9.70;99.90
33739;DHT22;20063;51.730;11.110;2023-04-07T11:13:45;9.70;99.90
33739;DHT22;20063;51.730;11.110;2023-04-07T11:16:12;9.80;99.60
33739;DHT22;20063;51.730;11.110;2023-04-07T11:18:39;9.80;95.40
33739;DHT22;20063;51.730;11.110;2023-04-07T11:21:05;9.70;95.90
33739;DHT22;20063;51.730;11.110;2023-04-07T11:23:42;9.70;99.10
33739;DHT22;20063;51.730;11.110;2023-04-07T11:26:09;9.70;99.90
33739;DHT22;20063;51.730;11.110;2023-04-07T11:28:51;9.80;98.00
33739;DHT22;20063;51.730;11.110;2023-04-07T11:31:25;9.90;96.60
33739;DHT22;20063;51.730;11.110;2023-04-07T11:33:51;9.90;97.00
33739;DHT22;20063;51.730;11.110;2023-04-07T11:36:29;9.90;98.10
33739;DHT22;20063;51.730;11.110;2023-04-07T11:38:56;9.90;99.90
33739;DHT22;20063;51.730;11.110;2023-04-07T11:41:22;10.00;99.90
33739;DHT22;20063;51.730;11.110;2023-04-07T11:44:03;10.00;99.60
33739;DHT22;20063;51.730;11.110;2023-04-07T11:46:28;10.00;99.90
33739;DHT22;20063;51.730;11.110;2023-04-07T11:48:54;10.10;99.90
33739;DHT22;20063;51.730;11.110;2023-04-07T11:51:32;10.10;99.90
33739;DHT22;20063;51.730;11.110;2023-04-07T11:53:57;10.20;99.90
33739;DHT22;20063;51.730;11.110;2023-04-07T11:56:23;10.20;99.90
33739;DHT22;20063;51.730;11.110;2023-04-07T11:58:53;10.20;99.90
33739;DHT22;20063;51.730;11.110;2023-04-07T12:01:21;10.20;99.90
33739;DHT22;20063;51.730;11.110;2023-04-07T12:04:02;10.30;99.90
33739;DHT22;20063;51.730;11.110;2023-04-07T12:06:30;10.30;99.90
33739;DHT22;20063;51.730;11.110;2023-04-07T12:09:02;10.40;99.90
33739;DHT22;20063;51.730;11.110;2023-04-07T12:11:28;10.40;99.90
33739;DHT22;20063;51.730;11.110;2023-04-07T12:13:54;10.40;98.40
33739;DHT22;20063;51.730;11.110;2023-04-07T12:16:21;10.50;98.40
33739;DHT22;20063;51.730;11.110;2023-04-07T12:18:47;10.40;99.90
33739;DHT22;20063;51.730;11.110;2023-04-07T12:21:13;10.50;99.90
33739;DHT22;20063;51.730;11.110;2023-04-07T12:23:39;10.50;99.90
33739;DHT22;20063;51.730;11.110;2023-04-07T12:26:05;10.60;99.90
33739;DHT22;20063;51.730;11.110;2023-04-07T12:28:31;10.60;98.60
33739;DHT22;20063;51.730;11.110;2023-04-07T12:30:57;10.50;99.00
33739;DHT22;20063;51.730;11.110;2023-04-07T12:33:23;10.50;99.90
33739;DHT22;20063;51.730;11.110;2023-04-07T12:35:48;10.50;99.90
33739;DHT22;20063;51.730;11.110;2023-04-07T12:38:14;10.70;99.90
33739;DHT22;20063;51.730;11.110;2023-04-07T12:40:40;10.70;99.40
33739;DHT22;20063;51.730;11.110;2023-04-07T12:43:06;10.80;98.30
33739;DHT22;20063;51.730;11.110;2023-04-07T12:45:32;10.80;99.90
33739;DHT22;20063;51.730;11.110;2023-04-07T12:47:58;10.80;99.90
33739;DHT22;20063;51.730;11.110;2023-04-07T12:50:24;10.90;99.90
33739;DHT22;20063;51.730;11.110;2023-04-07T12:52:52;10.80;98.20
33739;DHT22;20063;51.730;11.110;2023-04-07T12:55:19;10.90;99.70
33739;DHT22;20063;51.730;11.110;2023-04-07T12:57:45;11.00;99.90
33739;DHT22;20063;51.730;11.110;2023-04-07T13:00:13;11.00;99.90
33739;DHT22;20063;51.730;11.110;2023-04-07T13:02:39;11.00;98.50
33739;DHT22;20063;51.730;11.110;2023-04-07T13:05:05;11.00;98.60
33739;DHT22;20063;51.730;11.110;2023-04-07T13:07:31;11.20;93.80
33739;DHT22;20063;51.730;11.110;2023-04-07T13:09:59;11.30;96.20
33739;DHT22;20063;51.730;11.110;2023-04-07T13:12:24;11.30;97.20
33739;DHT22;20063;51.730;11.110;2023-04-07T13:14:50;11.20;98.20
33739;DHT22;20063;51.730;11.110;2023-04-07T13:17:16;11.30;96.40
33739;DHT22;20063;51.730;11.110;2023-04-07T13:19:43;11.30;98.00
33739;DHT22;20063;51.730;11.110;2023-04-07T13:22:14;11.30;99.90
33739;DHT22;20063;51.730;11.110;2023-04-07T13:24:41;11.40;97.60
33739;DHT22;20063;51.730;11.110;2023-04-07T13:27:06;11.60;91.50
33739;DHT22;20063;51.730;11.110;2023-04-07T13:29:33;11.60;90.60
33739;DHT22;20063;51.730;11.110;2023-04-07T13:32:09;11.60;91.70
33739;DHT22;20063;51.730;11.110;2023-04-07T13:34:37;11.70;91.20
33739;DHT22;20063;51.730;11.110;2023-04-07T13:37:03;11.70;91.00
33739;DHT22;20063;51.730;11.110;2023-04-07T13:39:30;11.70;91.10
33739;DHT22;20063;51.730;11.110;2023-04-07T13:41:56;11.70;91.60
33739;DHT22;20063;51.730;11.110;2023-04-07T13:44:23;11.70;89.80
33739;DHT22;20063;51.730;11.110;2023-04-07T13:46:48;11.70;91.60
33739;DHT22;20063;51.730;11.110;2023-04-07T13:49:14;11.80;90.20
33739;DHT22;20063;51.730;11.110;2023-04-07T13:51:39;11.90;85.30
33739;DHT22;20063;51.730;11.110;2023-04-07T13:54:08;11.90;84.70
33739;DHT22;20063;51.730;11.110;2023-04-07T13:56:34;11.80;88.40
33739;DHT22;20063;51.730;11.110;2023-04-07T13:59:03;11.90;84.30
33739;DHT22;20063;51.730;11.110;2023-04-07T14:01:29;12.00;86.10
33739;DHT22;20063;51.730;11.110;2023-04-07T14:03:54;12.00;80.20
33739;DHT22;20063;51.730;11.110;2023-04-07T14:06:22;11.90;83.70
33739;DHT22;20063;51.730;11.110;2023-04-07T14:08:48;11.90;83.90
33739;DHT22;20063;51.730;11.110;2023-04-07T14:11:21;12.00;80.50
33739;DHT22;20063;51.730;11.110;2023-04-07T14:13:47;12.00;78.00
33739;DHT22;20063;51.730;11.110;2023-04-07T14:16:13;12.00;74.30
33739;DHT22;20063;51.730;11.110;2023-04-07T14:18:39;12.00;74.10
33739;DHT22;20063;51.730;11.110;2023-04-07T14:21:05;12.00;76.40
33739;DHT22;20063;51.730;11.110;2023-04-07T14:23:31;12.00;77.20
33739;DHT22;20063;51.730;11.110;2023-04-07T14:25:57;12.00;74.90
33739;DHT22;20063;51.730;11.110;2023-04-07T14:28:23;12.10;77.00
33739;DHT22;20063;51.730;11.110;2023-04-07T14:30:48;12.20;72.20
33739;DHT22;20063;51.730;11.110;2023-04-07T14:33:14;12.30;73.70
33739;DHT22;20063;51.730;11.110;2023-04-07T14:35:42;12.30;72.90
33739;DHT22;20063;51.730;11.110;2023-04-07T14:38:08;12.40;69.40
33739;DHT22;20063;51.730;11.110;2023-04-07T14:40:33;12.40;70.10
33739;DHT22;20063;51.730;11.110;2023-04-07T14:43:01;12.40;67.70
33739;DHT22;20063;51.730;11.110;2023-04-07T14:45:27;12.30;71.00
33739;DHT22;20063;51.730;11.110;2023-04-07T14:47:53;12.30;72.30
33739;DHT22;20063;51.730;11.110;2023-04-07T14:50:19;12.40;74.80
33739;DHT22;20063;51.730;11.110;2023-04-07T14:52:45;12.40;76.90
33739;DHT22;20063;51.730;11.110;2023-04-07T14:55:10;12.40;71.90
33739;DHT22;20063;51.730;11.110;2023-04-07T14:57:37;12.50;73.30
33739;DHT22;20063;51.730;11.110;2023-04-07T15:00:03;12.50;71.20
33739;DHT22;20063;51.730;11.110;2023-04-07T15:02:32;12.50;71.60
33739;DHT22;20063;51.730;11.110;2023-04-07T15:04:58;12.50;71.10
33739;DHT22;20063;51.730;11.110;2023-04-07T15:07:23;12.50;73.10
33739;DHT22;20063;51.730;11.110;2023-04-07T15:09:49;12.50;72.40
33739;DHT22;20063;51.730;11.110;2023-04-07T15:12:15;12.50;72.10
33739;DHT22;20063;51.730;11.110;2023-04-07T15:14:40;12.50;73.00
33739;DHT22;20063;51.730;11.110;2023-04-07T15:17:06;12.60;75.20
33739;DHT22;20063;51.730;11.110;2023-04-07T15:19:31;12.70;74.50
33739;DHT22;20063;51.730;11.110;2023-04-07T15:21:57;12.70;74.80
33739;DHT22;20063;51.730;11.110;2023-04-07T15:24:24;12.70;75.10
33739;DHT22;20063;51.730;11.110;2023-04-07T15:26:49;12.70;73.70
33739;DHT22;20063;51.730;11.110;2023-04-07T15:29:15;12.70;76.90
33739;DHT22;20063;51.730;11.110;2023-04-07T15:31:40;12.70;81.20
33739;DHT22;20063;51.730;11.110;2023-04-07T15:34:06;12.70;86.00
33739;DHT22;20063;51.730;11.110;2023-04-07T15:36:32;12.70;85.60
33739;DHT22;20063;51.730;11.110;2023-04-07T15:39:02;12.70;80.50
33739;DHT22;20063;51.730;11.110;2023-04-07T15:41:37;12.80;83.80
33739;DHT22;20063;51.730;11.110;2023-04-07T15:44:03;12.80;79.20
33739;DHT22;20063;51.730;11.110;2023-04-07T15:46:28;12.90;83.40
33739;DHT22;20063;51.730;11.110;2023-04-07T15:48:56;12.80;80.30
33739;DHT22;20063;51.730;11.110;2023-04-07T15:51:22;12.80;80.50